createdAt,value
2019-03-11T00:00:43.507Z,90.91
2019-03-11T00:01:43.541Z,90.81
2019-03-11T00:02:43.561Z,90.91
2019-03-11T00:03:43.590Z,90.81
2019-03-11T00:04:43.614Z,90.91
2019-03-11T00:05:43.643Z,90.81
2019-03-11T00:06:43.669Z,90.72
2019-03-11T00:07:43.701Z,90.81
2019-03-11T00:08:43.722Z,90.91
2019-03-11T00:09:43.748Z,90.72
2019-03-11T00:10:43.777Z,90.81
2019-03-11T00:11:43.803Z,90.53
2019-03-11T00:12:43.829Z,90.53
2019-03-11T00:13:43.859Z,90.81
2019-03-11T00:14:43.883Z,91.09
2019-03-11T00:15:43.919Z,90.91
2019-03-11T00:16:43.937Z,90.91
2019-03-11T00:17:43.965Z,91.66
2019-03-11T00:18:43.992Z,90.91
2019-03-11T00:19:44.019Z,91.00
2019-03-11T00:20:44.046Z,91.28
2019-03-11T00:21:44.072Z,90.81
2019-03-11T00:22:44.099Z,91.09
2019-03-11T00:23:44.126Z,91.00
2019-03-11T00:24:44.153Z,91.19
2019-03-11T00:25:44.181Z,91.09
2019-03-11T00:26:44.208Z,90.62
2019-03-11T00:27:44.234Z,90.91
2019-03-11T00:28:44.260Z,90.81
2019-03-11T00:29:44.288Z,91.00
2019-03-11T00:30:44.315Z,90.72
2019-03-11T00:31:44.342Z,91.28
2019-03-11T00:32:44.369Z,91.19
2019-03-11T00:33:44.394Z,90.91
2019-03-11T00:34:44.422Z,91.38
2019-03-11T00:35:44.450Z,91.47
2019-03-11T00:36:44.479Z,91.57
2019-03-11T00:37:44.501Z,91.09
2019-03-11T00:38:44.528Z,90.86
2019-03-11T00:39:44.556Z,91.00
2019-03-11T00:40:44.581Z,90.72
2019-03-11T00:41:44.608Z,91.14
2019-03-11T00:42:44.634Z,90.95
2019-03-11T00:43:44.664Z,91.24
2019-03-11T00:44:44.689Z,90.86
2019-03-11T00:45:44.716Z,91.09
2019-03-11T00:46:44.742Z,91.24
2019-03-11T00:47:44.770Z,91.38
2019-03-11T00:48:44.796Z,90.91
2019-03-11T00:49:44.821Z,90.81
2019-03-11T00:50:44.850Z,90.91
2019-03-11T00:51:44.876Z,90.43
2019-03-11T00:52:44.968Z,90.53
2019-03-11T00:53:44.928Z,90.43
2019-03-11T00:54:44.955Z,90.53
2019-03-11T00:55:44.983Z,90.53
2019-03-11T00:56:45.009Z,90.34
2019-03-11T00:57:45.037Z,89.77
2019-03-11T00:58:45.063Z,89.96
2019-03-11T00:59:45.092Z,89.96
2019-03-11T01:00:45.126Z,90.15
2019-03-11T01:01:45.148Z,89.86
2019-03-11T01:02:45.172Z,89.96
2019-03-11T01:03:45.204Z,90.72
2019-03-11T01:04:45.224Z,90.29
2019-03-11T01:05:45.251Z,90.24
2019-03-11T01:06:45.276Z,90.39
2019-03-11T01:07:45.302Z,90.58
2019-03-11T01:08:45.336Z,90.62
2019-03-11T01:09:45.354Z,90.05
2019-03-11T01:10:45.383Z,90.01
2019-03-11T01:11:45.412Z,89.82
2019-03-11T01:12:45.435Z,89.44
2019-03-11T01:13:45.462Z,89.91
2019-03-11T01:14:45.489Z,90.29
2019-03-11T01:15:45.516Z,90.48
2019-03-11T01:16:45.542Z,90.39
2019-03-11T01:17:45.570Z,90.58
2019-03-11T01:18:45.596Z,90.53
2019-03-11T01:19:45.623Z,89.96
2019-03-11T01:20:45.649Z,89.77
2019-03-11T01:21:45.678Z,89.77
2019-03-11T01:22:45.701Z,88.82
2019-03-11T01:23:45.731Z,89.11
2019-03-11T01:24:45.754Z,88.82
2019-03-11T01:25:45.783Z,89.01
2019-03-11T01:26:45.814Z,88.68
2019-03-11T01:27:45.836Z,89.48
2019-03-11T01:28:45.862Z,89.11
2019-03-11T01:29:45.887Z,89.01
2019-03-11T01:30:45.914Z,88.96
2019-03-11T01:31:45.942Z,89.06
2019-03-11T01:32:45.966Z,89.34
2019-03-11T01:33:45.993Z,89.77
2019-03-11T01:34:46.021Z,89.72
2019-03-11T01:35:46.048Z,89.77
2019-03-11T01:36:46.073Z,89.86
2019-03-11T01:37:46.101Z,89.67
2019-03-11T01:38:46.127Z,89.67
2019-03-11T01:39:46.156Z,89.67
2019-03-11T01:40:46.179Z,89.58
2019-03-11T01:41:46.210Z,89.53
2019-03-11T01:42:46.234Z,89.82
2019-03-11T01:43:46.260Z,89.58
2019-03-11T01:44:46.287Z,89.72
2019-03-11T01:45:46.313Z,89.91
2019-03-11T01:46:46.351Z,90.05
2019-03-11T01:47:46.369Z,90.10
2019-03-11T01:48:46.418Z,90.01
2019-03-11T01:49:46.421Z,90.10
2019-03-11T01:50:46.445Z,90.20
2019-03-11T01:51:46.472Z,90.53
2019-03-11T01:52:46.497Z,90.48
2019-03-11T01:53:46.523Z,90.39
2019-03-11T01:54:46.551Z,90.43
2019-03-11T01:55:46.579Z,90.05
2019-03-11T01:56:46.611Z,89.63
2019-03-11T01:57:46.632Z,89.77
2019-03-11T01:58:46.658Z,90.01
2019-03-11T01:59:46.682Z,89.82
2019-03-11T02:00:46.711Z,89.72
2019-03-11T02:01:48.474Z,89.96
2019-03-11T02:02:46.763Z,89.58
2019-03-11T02:03:46.790Z,89.58
2019-03-11T02:04:46.814Z,89.44
2019-03-11T02:05:46.842Z,90.10
2019-03-11T02:06:46.872Z,89.72
2019-03-11T02:07:46.894Z,89.48
2019-03-11T02:08:46.923Z,89.72
2019-03-11T02:09:46.948Z,89.29
2019-03-11T02:10:47.006Z,89.91
2019-03-11T02:11:47.001Z,89.72
2019-03-11T02:12:47.026Z,89.25
2019-03-11T02:13:47.053Z,90.10
2019-03-11T02:14:47.080Z,90.29
2019-03-11T02:15:47.108Z,90.67
2019-03-11T02:16:47.134Z,90.39
2019-03-11T02:17:47.159Z,90.39
2019-03-11T02:18:47.184Z,90.48
2019-03-11T02:19:47.212Z,90.39
2019-03-11T02:20:47.239Z,90.48
2019-03-11T02:21:47.266Z,89.91
2019-03-11T02:22:47.292Z,90.10
2019-03-11T02:23:47.318Z,90.58
2019-03-11T02:24:47.343Z,90.48
2019-03-11T02:25:47.377Z,90.67
2019-03-11T02:26:47.398Z,90.67
2019-03-11T02:27:47.423Z,90.29
2019-03-11T02:28:47.455Z,90.05
2019-03-11T02:29:47.474Z,89.72
2019-03-11T02:30:47.514Z,89.53
2019-03-11T02:31:47.529Z,89.67
2019-03-11T02:32:47.560Z,89.48
2019-03-11T02:33:47.588Z,89.39
2019-03-11T02:34:47.607Z,89.39
2019-03-11T02:35:47.652Z,89.63
2019-03-11T02:36:47.663Z,89.53
2019-03-11T02:37:47.688Z,89.15
2019-03-11T02:38:47.714Z,89.91
2019-03-11T02:39:47.745Z,89.82
2019-03-11T02:40:47.767Z,89.91
2019-03-11T02:41:47.795Z,89.91
2019-03-11T02:42:47.857Z,89.44
2019-03-11T02:43:47.846Z,89.06
2019-03-11T02:44:47.874Z,89.34
2019-03-11T02:45:47.900Z,89.82
2019-03-11T02:46:47.942Z,89.63
2019-03-11T02:47:47.953Z,89.53
2019-03-11T02:48:47.978Z,90.10
2019-03-11T02:49:48.011Z,89.72
2019-03-11T02:50:48.038Z,90.39
2019-03-11T02:51:48.067Z,90.58
2019-03-11T02:52:48.096Z,89.91
2019-03-11T02:53:48.112Z,90.01
2019-03-11T02:54:48.138Z,90.10
2019-03-11T02:55:50.917Z,89.72
2019-03-11T02:56:48.190Z,90.01
2019-03-11T02:57:48.216Z,90.48
2019-03-11T02:58:48.255Z,90.67
2019-03-11T02:59:48.287Z,90.48
2019-03-11T03:00:48.301Z,90.48
2019-03-11T03:01:48.327Z,90.86
2019-03-11T03:02:48.357Z,90.86
2019-03-11T03:03:48.379Z,90.86
2019-03-11T03:04:48.407Z,91.05
2019-03-11T03:05:48.428Z,91.05
2019-03-11T03:06:48.455Z,91.33
2019-03-11T03:07:48.489Z,91.81
2019-03-11T03:08:48.518Z,91.90
2019-03-11T03:09:48.534Z,91.81
2019-03-11T03:10:48.560Z,92.00
2019-03-11T03:11:48.590Z,92.00
2019-03-11T03:12:48.617Z,92.00
2019-03-11T03:13:48.641Z,91.90
2019-03-11T03:14:48.664Z,91.90
2019-03-11T03:15:48.698Z,91.81
2019-03-11T03:16:48.722Z,92.00
2019-03-11T03:17:48.744Z,91.90
2019-03-11T03:18:48.775Z,92.47
2019-03-11T03:19:48.804Z,92.38
2019-03-11T03:20:48.836Z,92.47
2019-03-11T03:21:48.852Z,92.38
2019-03-11T03:22:48.889Z,92.38
2019-03-11T03:23:48.906Z,92.28
2019-03-11T03:24:48.929Z,92.19
2019-03-11T03:25:48.959Z,92.28
2019-03-11T03:26:48.982Z,92.28
2019-03-11T03:27:49.101Z,92.66
2019-03-11T03:28:49.038Z,92.47
2019-03-11T03:29:49.065Z,91.52
2019-03-11T03:30:49.089Z,92.28
2019-03-11T03:31:49.117Z,91.81
2019-03-11T03:32:49.143Z,92.57
2019-03-11T03:33:49.167Z,92.76
2019-03-11T03:34:49.193Z,92.85
2019-03-11T03:35:49.220Z,92.38
2019-03-11T03:36:49.244Z,93.23
2019-03-11T03:37:49.272Z,93.32
2019-03-11T03:38:49.305Z,93.51
2019-03-11T03:39:49.326Z,93.80
2019-03-11T03:40:49.352Z,93.80
2019-03-11T03:41:49.377Z,93.61
2019-03-11T03:42:49.436Z,93.80
2019-03-11T03:43:49.432Z,94.18
2019-03-11T03:44:49.454Z,93.80
2019-03-11T03:45:49.493Z,93.99
2019-03-11T03:46:49.518Z,94.27
2019-03-11T03:47:49.538Z,94.37
2019-03-11T03:48:49.753Z,94.27
2019-03-11T03:49:49.599Z,94.46
2019-03-11T03:50:49.673Z,94.65
2019-03-11T03:51:49.641Z,94.65
2019-03-11T03:52:49.664Z,94.65
2019-03-11T03:53:49.693Z,94.37
2019-03-11T03:54:49.720Z,94.27
2019-03-11T03:55:49.745Z,94.08
2019-03-11T03:56:49.771Z,94.46
2019-03-11T03:57:49.806Z,94.46
2019-03-11T03:58:49.828Z,94.74
2019-03-11T03:59:49.854Z,94.93
2019-03-11T04:00:49.917Z,94.74
2019-03-11T04:01:49.904Z,94.37
2019-03-11T04:02:49.931Z,94.74
2019-03-11T04:03:49.956Z,94.56
2019-03-11T04:04:49.983Z,94.65
2019-03-11T04:05:50.009Z,94.56
2019-03-11T04:06:50.045Z,94.65
2019-03-11T04:07:50.065Z,94.37
2019-03-11T04:08:50.097Z,94.27
2019-03-11T04:09:50.112Z,93.80
2019-03-11T04:10:50.139Z,93.42
2019-03-11T04:11:50.168Z,93.42
2019-03-11T04:12:50.191Z,93.51
2019-03-11T04:13:50.218Z,93.42
2019-03-11T04:14:50.247Z,93.99
2019-03-11T04:15:50.274Z,93.70
2019-03-11T04:16:50.301Z,94.74
2019-03-11T04:17:50.322Z,94.37
2019-03-11T04:18:50.348Z,94.65
2019-03-11T04:19:50.375Z,94.65
2019-03-11T04:20:50.408Z,94.65
2019-03-11T04:21:50.429Z,94.65
2019-03-11T04:22:50.465Z,94.46
2019-03-11T04:23:50.482Z,94.74
2019-03-11T04:24:50.508Z,94.56
2019-03-11T04:25:50.534Z,94.65
2019-03-11T04:26:50.566Z,94.84
2019-03-11T04:27:50.586Z,94.46
2019-03-11T04:28:50.611Z,94.93
2019-03-11T04:29:50.637Z,94.74
2019-03-11T04:30:50.668Z,94.93
2019-03-11T04:31:50.689Z,94.74
2019-03-11T04:32:50.726Z,94.65
2019-03-11T04:33:50.743Z,94.93
2019-03-11T04:34:50.772Z,94.27
2019-03-11T04:35:50.799Z,94.46
2019-03-11T04:36:50.823Z,94.56
2019-03-11T04:37:50.847Z,94.56
2019-03-11T04:38:50.873Z,94.84
2019-03-11T04:39:50.901Z,94.74
2019-03-11T04:40:50.925Z,95.12
2019-03-11T04:41:50.953Z,95.12
2019-03-11T04:42:51.031Z,95.12
2019-03-11T04:43:51.011Z,95.12
2019-03-11T04:44:51.031Z,95.22
2019-03-11T04:45:51.057Z,95.79
2019-03-11T04:46:51.083Z,95.79
2019-03-11T04:47:51.110Z,95.50
2019-03-11T04:48:51.135Z,95.41
2019-03-11T04:49:51.163Z,95.69
2019-03-11T04:50:51.226Z,95.03
2019-03-11T04:51:51.281Z,95.60
2019-03-11T04:52:51.270Z,95.69
2019-03-11T04:53:51.267Z,95.60
2019-03-11T04:54:51.291Z,95.41
2019-03-11T04:55:51.321Z,95.79
2019-03-11T04:56:51.343Z,95.60
2019-03-11T04:57:51.377Z,95.12
2019-03-11T04:58:51.397Z,95.41
2019-03-11T04:59:51.425Z,95.60
2019-03-11T05:00:51.448Z,95.69
2019-03-11T05:01:51.475Z,95.50
2019-03-11T05:02:51.501Z,95.03
2019-03-11T05:03:51.528Z,96.17
2019-03-11T05:04:51.553Z,95.69
2019-03-11T05:05:51.578Z,95.03
2019-03-11T05:06:51.607Z,95.03
2019-03-11T05:07:51.632Z,94.93
2019-03-11T05:08:51.658Z,95.03
2019-03-11T05:09:51.685Z,95.12
2019-03-11T05:10:51.710Z,95.22
2019-03-11T05:11:51.737Z,94.74
2019-03-11T05:12:51.767Z,95.03
2019-03-11T05:13:51.800Z,94.74
2019-03-11T05:14:51.814Z,95.03
2019-03-11T05:15:51.841Z,95.31
2019-03-11T05:16:51.867Z,95.60
2019-03-11T05:17:51.895Z,95.31
2019-03-11T05:18:51.919Z,95.88
2019-03-11T05:19:51.946Z,95.12
2019-03-11T05:20:51.972Z,94.93
2019-03-11T05:21:52.030Z,95.12
2019-03-11T05:22:54.594Z,95.22
2019-03-11T05:23:52.049Z,94.84
2019-03-11T05:24:52.081Z,95.03
2019-03-11T05:25:52.102Z,94.93
2019-03-11T05:26:52.129Z,94.93
2019-03-11T05:27:52.159Z,94.93
2019-03-11T05:28:52.181Z,94.74
2019-03-11T05:29:52.207Z,95.69
2019-03-11T05:30:52.232Z,95.41
2019-03-11T05:31:52.262Z,94.93
2019-03-11T05:32:52.289Z,95.03
2019-03-11T05:33:52.311Z,94.74
2019-03-11T05:34:52.339Z,94.84
2019-03-11T05:35:52.365Z,94.93
2019-03-11T05:36:52.390Z,95.03
2019-03-11T05:37:52.416Z,94.27
2019-03-11T05:38:52.511Z,94.56
2019-03-11T05:39:52.469Z,94.56
2019-03-11T05:40:52.506Z,94.46
2019-03-11T05:41:52.522Z,94.37
2019-03-11T05:42:52.549Z,94.27
2019-03-11T05:43:52.574Z,94.18
2019-03-11T05:44:52.598Z,94.08
2019-03-11T05:45:52.625Z,94.37
2019-03-11T05:46:52.653Z,94.18
2019-03-11T05:47:52.678Z,93.99
2019-03-11T05:48:52.703Z,93.89
2019-03-11T05:49:52.731Z,94.37
2019-03-11T05:50:52.761Z,94.08
2019-03-11T05:51:58.927Z,94.18
2019-03-11T05:53:54.782Z,93.89
2019-03-11T05:54:54.809Z,94.08
2019-03-11T05:57:04.019Z,93.61
2019-03-11T05:57:56.828Z,93.99
2019-03-11T05:59:58.846Z,93.32
2019-03-11T06:00:58.853Z,93.32
2019-03-11T06:03:00.929Z,92.85
2019-03-11T06:04:00.874Z,92.28
2019-03-11T06:06:02.876Z,91.90
2019-03-11T06:07:02.899Z,91.85
2019-03-11T06:09:04.898Z,91.85
2019-03-11T06:10:04.927Z,91.81
2019-03-11T06:12:06.921Z,91.47
2019-03-11T06:13:06.947Z,90.67
2019-03-11T06:15:08.945Z,90.95
2019-03-11T06:16:08.967Z,90.95
2019-03-11T06:17:08.989Z,90.29
2019-03-11T06:18:09.016Z,90.29
2019-03-11T06:19:09.043Z,90.53
2019-03-11T06:20:09.067Z,90.48
2019-03-11T06:21:09.095Z,90.24
2019-03-11T06:22:09.121Z,90.10
2019-03-11T06:23:09.147Z,89.86
2019-03-11T06:24:09.174Z,90.10
2019-03-11T06:25:09.201Z,89.77
2019-03-11T06:26:09.226Z,90.01
2019-03-11T06:27:09.264Z,90.10
2019-03-11T06:28:09.282Z,90.05
2019-03-11T06:29:09.304Z,89.58
2019-03-11T06:30:09.332Z,89.67
2019-03-11T06:31:09.357Z,88.68
2019-03-11T06:32:09.385Z,89.39
2019-03-11T06:33:09.410Z,89.11
2019-03-11T06:34:09.437Z,89.25
2019-03-11T06:35:09.467Z,89.11
2019-03-11T06:36:09.514Z,88.49
2019-03-11T06:37:09.515Z,88.54
2019-03-11T06:38:09.541Z,89.11
2019-03-11T06:39:09.567Z,88.87
2019-03-11T06:40:09.595Z,88.73
2019-03-11T06:41:09.620Z,89.01
2019-03-11T06:42:09.648Z,89.11
2019-03-11T06:43:09.673Z,88.44
2019-03-11T06:44:09.700Z,88.44
2019-03-11T06:45:09.727Z,88.82
2019-03-11T06:46:09.752Z,88.73
2019-03-11T06:47:09.779Z,88.63
2019-03-11T06:48:09.804Z,88.06
2019-03-11T06:49:09.832Z,88.06
2019-03-11T06:50:09.860Z,88.25
2019-03-11T06:51:09.884Z,87.97
2019-03-11T06:52:09.915Z,88.06
2019-03-11T06:53:09.936Z,88.16
2019-03-11T06:54:09.963Z,87.40
2019-03-11T06:55:09.991Z,87.68
2019-03-11T06:56:10.017Z,87.59
2019-03-11T06:57:12.508Z,87.59
2019-03-11T06:58:10.069Z,87.77
2019-03-11T06:59:10.096Z,87.87
2019-03-11T07:00:10.123Z,88.16
2019-03-11T07:01:10.148Z,88.06
2019-03-11T07:02:10.174Z,88.35
2019-03-11T07:03:10.201Z,87.49
2019-03-11T07:04:10.228Z,87.97
2019-03-11T07:05:19.347Z,87.59
2019-03-11T07:06:10.280Z,87.68
2019-03-11T07:07:10.305Z,87.77
2019-03-11T07:08:10.334Z,87.77
2019-03-11T07:09:10.415Z,87.77
2019-03-11T07:10:10.393Z,87.40
2019-03-11T07:11:10.418Z,87.77
2019-03-11T07:12:10.445Z,88.25
2019-03-11T07:13:10.465Z,87.40
2019-03-11T07:14:10.494Z,87.30
2019-03-11T07:15:10.523Z,86.74
2019-03-11T07:16:10.549Z,86.45
2019-03-11T07:17:10.573Z,87.40
2019-03-11T07:18:10.598Z,86.83
2019-03-11T07:19:10.626Z,86.93
2019-03-11T07:20:10.656Z,87.12
2019-03-11T07:21:10.679Z,86.93
2019-03-11T07:22:10.706Z,87.12
2019-03-11T07:23:10.743Z,87.12
2019-03-11T07:24:10.758Z,87.30
2019-03-11T07:25:10.785Z,86.45
2019-03-11T07:26:10.812Z,86.74
2019-03-11T07:27:10.838Z,86.74
2019-03-11T07:28:10.865Z,86.55
2019-03-11T07:29:10.892Z,86.45
2019-03-11T07:30:10.926Z,86.55
2019-03-11T07:31:10.945Z,87.02
2019-03-11T07:32:10.972Z,86.45
2019-03-11T07:33:10.998Z,86.74
2019-03-11T07:34:11.024Z,86.93
2019-03-11T07:35:11.054Z,86.49
2019-03-11T07:36:11.079Z,86.21
2019-03-11T07:37:11.167Z,86.30
2019-03-11T07:38:11.213Z,85.17
2019-03-11T07:39:11.157Z,84.98
2019-03-11T07:40:11.185Z,85.07
2019-03-11T07:41:11.212Z,84.22
2019-03-11T07:42:11.253Z,84.69
2019-03-11T07:43:11.265Z,84.98
2019-03-11T07:44:11.309Z,84.69
2019-03-11T07:45:11.319Z,84.98
2019-03-11T07:46:11.351Z,84.22
2019-03-11T07:47:11.375Z,84.22
2019-03-11T07:48:11.403Z,84.41
2019-03-11T07:49:11.426Z,84.69
2019-03-11T07:50:11.453Z,84.98
2019-03-11T07:51:11.481Z,84.59
2019-03-11T07:52:11.509Z,85.26
2019-03-11T07:53:11.534Z,84.69
2019-03-11T07:54:11.561Z,84.88
2019-03-11T07:55:11.590Z,84.69
2019-03-11T07:56:11.615Z,85.45
2019-03-11T07:57:11.642Z,85.36
2019-03-11T07:58:11.677Z,85.07
2019-03-11T07:59:11.695Z,85.55
2019-03-11T08:00:11.724Z,85.17
2019-03-11T08:01:11.750Z,84.69
2019-03-11T08:02:11.775Z,85.26
2019-03-11T08:03:11.813Z,86.11
2019-03-11T08:04:11.830Z,88.10
2019-03-11T08:05:11.862Z,87.54
2019-03-11T08:06:18.541Z,87.16
2019-03-11T08:07:11.911Z,86.68
2019-03-11T08:08:11.939Z,86.40
2019-03-11T08:09:11.963Z,85.64
2019-03-11T08:10:11.993Z,84.88
2019-03-11T08:11:12.018Z,84.50
2019-03-11T08:12:12.063Z,84.88
2019-03-11T08:13:12.082Z,84.12
2019-03-11T08:14:12.105Z,84.31
2019-03-11T08:15:12.127Z,84.36
2019-03-11T08:16:12.171Z,84.31
2019-03-11T08:17:12.180Z,84.36
2019-03-11T08:18:12.208Z,84.17
2019-03-11T08:19:12.262Z,83.97
2019-03-11T08:20:12.263Z,83.22
2019-03-11T08:21:12.292Z,83.22
2019-03-11T08:22:12.322Z,82.74
2019-03-11T08:23:12.342Z,82.36
2019-03-11T08:24:12.370Z,82.17
2019-03-11T08:25:12.446Z,82.08
2019-03-11T08:26:12.427Z,80.94
2019-03-11T08:27:12.452Z,80.18
2019-03-11T08:28:12.480Z,80.65
2019-03-11T08:29:12.507Z,79.80
2019-03-11T08:30:12.532Z,79.80
2019-03-11T08:31:12.560Z,80.56
2019-03-11T08:32:12.593Z,79.71
2019-03-11T08:33:12.616Z,79.90
2019-03-11T08:34:12.643Z,77.90
2019-03-11T08:35:12.672Z,78.56
2019-03-11T08:36:12.699Z,78.19
2019-03-11T08:37:12.724Z,78.56
2019-03-11T08:38:12.755Z,79.04
2019-03-11T08:39:12.858Z,79.71
2019-03-11T08:40:12.870Z,79.85
2019-03-11T08:41:12.834Z,80.24
2019-03-11T08:42:12.865Z,80.24
2019-03-11T08:43:12.892Z,80.52
2019-03-11T08:44:12.917Z,80.33
2019-03-11T08:45:12.943Z,80.80
2019-03-11T08:46:12.975Z,81.09
2019-03-11T08:47:12.999Z,81.09
2019-03-11T08:48:13.027Z,81.47
2019-03-11T08:49:13.052Z,81.47
2019-03-11T08:50:13.087Z,81.66
2019-03-11T08:51:13.107Z,81.47
2019-03-11T08:52:13.137Z,80.80
2019-03-11T08:53:13.160Z,80.52
2019-03-11T08:54:13.189Z,80.80
2019-03-11T08:55:13.220Z,80.71
2019-03-11T08:56:13.246Z,80.71
2019-03-11T08:57:13.273Z,80.62
2019-03-11T08:58:13.297Z,81.18
2019-03-11T08:59:13.328Z,80.80
2019-03-11T09:00:13.353Z,80.62
2019-03-11T09:01:13.380Z,80.90
2019-03-11T09:02:13.407Z,80.99
2019-03-11T09:03:13.436Z,80.62
2019-03-11T09:04:13.463Z,80.80
2019-03-11T09:05:13.489Z,80.52
2019-03-11T09:06:13.516Z,80.52
2019-03-11T09:07:13.545Z,80.33
2019-03-11T09:08:13.572Z,80.52
2019-03-11T09:09:13.599Z,80.62
2019-03-11T09:10:13.627Z,80.71
2019-03-11T09:11:13.654Z,80.52
2019-03-11T09:12:13.681Z,80.43
2019-03-11T09:13:13.708Z,80.80
2019-03-11T09:14:13.736Z,80.84
2019-03-11T09:15:13.766Z,80.80
2019-03-11T09:16:13.790Z,79.90
2019-03-11T09:17:13.822Z,80.43
2019-03-11T09:18:13.845Z,80.52
2019-03-11T09:19:13.878Z,80.14
2019-03-11T09:20:13.920Z,79.95
2019-03-11T09:21:13.927Z,79.95
2019-03-11T09:22:13.952Z,79.71
2019-03-11T09:23:13.981Z,79.57
2019-03-11T09:24:19.105Z,79.19
2019-03-11T09:25:14.036Z,78.91
2019-03-11T09:26:14.062Z,79.10
2019-03-11T09:27:14.091Z,79.28
2019-03-11T09:28:14.161Z,79.00
2019-03-11T09:29:14.143Z,78.72
2019-03-11T09:30:14.175Z,78.91
2019-03-11T09:31:14.201Z,78.91
2019-03-11T09:32:14.229Z,78.91
2019-03-11T09:33:14.255Z,78.81
2019-03-11T09:34:14.282Z,78.24
2019-03-11T09:35:14.309Z,77.71
2019-03-11T09:36:14.337Z,78.28
2019-03-11T09:37:14.363Z,78.28
2019-03-11T09:38:14.391Z,78.00
2019-03-11T09:39:14.464Z,77.24
2019-03-11T09:40:14.445Z,77.14
2019-03-11T09:41:14.472Z,77.71
2019-03-11T09:42:14.499Z,77.43
2019-03-11T09:43:14.527Z,77.81
2019-03-11T09:44:14.555Z,78.00
2019-03-11T09:45:14.587Z,77.62
2019-03-11T09:46:14.611Z,77.62
2019-03-11T09:47:14.637Z,77.24
2019-03-11T09:48:14.665Z,77.33
2019-03-11T09:49:14.691Z,78.00
2019-03-11T09:50:14.729Z,77.24
2019-03-11T09:51:14.747Z,77.14
2019-03-11T09:52:14.774Z,77.33
2019-03-11T09:53:14.804Z,77.24
2019-03-11T09:54:14.830Z,77.43
2019-03-11T09:55:14.856Z,76.95
2019-03-11T09:56:14.884Z,75.91
2019-03-11T09:57:14.910Z,76.01
2019-03-11T09:58:14.944Z,76.01
2019-03-11T09:59:14.965Z,75.72
2019-03-11T10:00:14.994Z,76.20
2019-03-11T10:01:15.019Z,75.72
2019-03-11T10:02:15.047Z,76.39
2019-03-11T10:03:15.074Z,76.39
2019-03-11T10:04:15.101Z,76.76
2019-03-11T10:05:15.130Z,76.29
2019-03-11T10:06:15.157Z,77.14
2019-03-11T10:07:15.185Z,76.95
2019-03-11T10:08:15.211Z,77.05
2019-03-11T10:09:15.240Z,77.71
2019-03-11T10:10:15.267Z,78.09
2019-03-11T10:11:15.296Z,77.52
2019-03-11T10:12:15.322Z,78.38
2019-03-11T10:13:15.350Z,78.09
2019-03-11T10:14:15.379Z,78.28
2019-03-11T10:15:15.405Z,78.47
2019-03-11T10:16:15.432Z,79.71
2019-03-11T10:17:15.458Z,79.61
2019-03-11T10:18:15.487Z,79.33
2019-03-11T10:19:15.513Z,79.61
2019-03-11T10:20:15.541Z,79.80
2019-03-11T10:21:15.568Z,79.99
2019-03-11T10:22:15.597Z,80.27
2019-03-11T10:23:15.624Z,80.84
2019-03-11T10:24:15.651Z,80.46
2019-03-11T10:25:15.677Z,80.65
2019-03-11T10:26:15.706Z,80.27
2019-03-11T10:27:15.733Z,80.75
2019-03-11T10:28:15.760Z,79.90
2019-03-11T10:29:15.785Z,80.94
2019-03-11T10:30:15.820Z,80.65
2019-03-11T10:31:15.842Z,80.65
2019-03-11T10:32:15.870Z,80.65
2019-03-11T10:33:15.895Z,80.56
2019-03-11T10:34:15.923Z,80.65
2019-03-11T10:35:30.802Z,80.08
2019-03-11T10:36:15.980Z,79.71
2019-03-11T10:37:16.006Z,78.85
2019-03-11T10:38:16.034Z,78.85
2019-03-11T10:39:16.061Z,79.42
2019-03-11T10:40:16.092Z,79.42
2019-03-11T10:41:16.117Z,79.14
2019-03-11T10:42:16.144Z,78.85
2019-03-11T10:43:16.185Z,79.52
2019-03-11T10:44:16.201Z,78.56
2019-03-11T10:45:16.227Z,78.95
2019-03-11T10:46:16.266Z,79.04
2019-03-11T10:47:16.283Z,79.33
2019-03-11T10:48:16.309Z,79.71
2019-03-11T10:49:16.337Z,79.33
2019-03-11T10:50:16.366Z,79.33
2019-03-11T10:51:16.392Z,79.42
2019-03-11T10:52:16.421Z,79.52
2019-03-11T10:53:16.447Z,79.42
2019-03-11T10:54:16.476Z,79.52
2019-03-11T10:55:16.503Z,77.56
2019-03-11T10:56:16.530Z,78.38
2019-03-11T10:57:16.557Z,79.23
2019-03-11T10:58:16.585Z,79.33
2019-03-11T10:59:16.613Z,80.18
2019-03-11T11:00:16.641Z,80.46
2019-03-11T11:01:16.667Z,80.65
2019-03-11T11:02:16.695Z,80.37
2019-03-11T11:03:16.724Z,81.23
2019-03-11T11:04:16.754Z,81.70
2019-03-11T11:05:16.777Z,82.17
2019-03-11T11:06:17.294Z,82.27
2019-03-11T11:07:16.835Z,82.93
2019-03-11T11:08:16.861Z,83.69
2019-03-11T11:09:16.889Z,82.55
2019-03-11T11:10:16.916Z,83.12
2019-03-11T11:11:16.944Z,82.65
2019-03-11T11:12:16.971Z,83.40
2019-03-11T11:13:16.998Z,82.84
2019-03-11T11:14:17.027Z,82.08
2019-03-11T11:15:17.053Z,82.74
2019-03-11T11:16:17.084Z,83.78
2019-03-11T11:17:17.111Z,83.69
2019-03-11T11:18:17.138Z,83.59
2019-03-11T11:19:17.165Z,84.17
2019-03-11T11:20:17.199Z,84.07
2019-03-11T11:21:17.220Z,84.07
2019-03-11T11:22:17.247Z,83.88
2019-03-11T11:23:17.274Z,83.59
2019-03-11T11:24:17.302Z,84.17
2019-03-11T11:25:17.329Z,84.36
2019-03-11T11:26:17.357Z,84.26
2019-03-11T11:27:17.388Z,84.55
2019-03-11T11:28:17.414Z,84.83
2019-03-11T11:29:17.439Z,84.45
2019-03-11T11:30:17.471Z,85.02
2019-03-11T11:31:17.496Z,85.11
2019-03-11T11:32:17.523Z,84.74
2019-03-11T11:33:17.573Z,85.17
2019-03-11T11:34:17.578Z,86.11
2019-03-11T11:35:17.605Z,86.49
2019-03-11T11:36:17.633Z,86.68
2019-03-11T11:37:17.660Z,86.97
2019-03-11T11:38:17.688Z,86.49
2019-03-11T11:39:17.716Z,87.54
2019-03-11T11:40:17.743Z,87.35
2019-03-11T11:41:17.770Z,87.45
2019-03-11T11:42:17.798Z,88.01
2019-03-11T11:43:17.878Z,87.45
2019-03-11T11:44:17.852Z,87.82
2019-03-11T11:45:17.880Z,87.54
2019-03-11T11:46:17.907Z,87.63
2019-03-11T11:47:17.936Z,87.92
2019-03-11T11:48:17.962Z,87.82
2019-03-11T11:49:17.989Z,87.82
2019-03-11T11:50:18.016Z,87.92
2019-03-11T11:51:18.047Z,88.68
2019-03-11T11:52:18.073Z,88.20
2019-03-11T11:53:18.103Z,88.29
2019-03-11T11:54:18.125Z,87.45
2019-03-11T11:55:18.154Z,87.45
2019-03-11T11:56:18.181Z,87.25
2019-03-11T11:57:18.206Z,87.45
2019-03-11T11:58:18.233Z,87.92
2019-03-11T11:59:18.262Z,87.73
2019-03-11T12:00:18.291Z,88.20
2019-03-11T12:01:18.319Z,88.58
2019-03-11T12:02:18.366Z,88.68
2019-03-11T12:03:18.370Z,88.01
2019-03-11T12:04:18.400Z,88.68
2019-03-11T12:05:18.424Z,88.01
2019-03-11T12:06:18.456Z,88.10
2019-03-11T12:07:18.582Z,88.58
2019-03-11T12:08:18.509Z,88.58
2019-03-11T12:09:18.536Z,88.96
2019-03-11T12:10:18.563Z,88.96
2019-03-11T12:11:18.591Z,88.96
2019-03-11T12:12:18.615Z,88.96
2019-03-11T12:13:18.643Z,88.58
2019-03-11T12:14:18.670Z,88.87
2019-03-11T12:15:18.698Z,88.58
2019-03-11T12:16:18.724Z,89.15
2019-03-11T12:17:18.753Z,88.87
2019-03-11T12:18:18.780Z,88.87
2019-03-11T12:19:18.806Z,89.06
2019-03-11T12:20:18.833Z,88.96
2019-03-11T12:21:18.861Z,89.06
2019-03-11T12:22:18.888Z,88.96
2019-03-11T12:23:18.918Z,88.68
2019-03-11T12:24:18.944Z,89.15
2019-03-11T12:25:18.969Z,88.77
2019-03-11T12:26:18.996Z,89.06
2019-03-11T12:27:19.025Z,88.96
2019-03-11T12:28:19.053Z,88.87
2019-03-11T12:29:19.078Z,89.53
2019-03-11T12:30:19.105Z,88.96
2019-03-11T12:31:21.542Z,89.06
2019-03-11T12:32:19.160Z,89.81
2019-03-11T12:33:20.437Z,89.34
2019-03-11T12:34:19.213Z,90.05
2019-03-11T12:35:19.240Z,89.11
2019-03-11T12:36:19.268Z,89.67
2019-03-11T12:37:19.295Z,90.10
2019-03-11T12:38:19.321Z,89.81
2019-03-11T12:39:19.348Z,89.62
2019-03-11T12:40:19.375Z,90.19
2019-03-11T12:41:19.401Z,90.57
2019-03-11T12:42:19.429Z,90.19
2019-03-11T12:43:19.455Z,90.00
2019-03-11T12:44:19.483Z,90.00
2019-03-11T12:45:19.507Z,89.53
2019-03-11T12:46:19.541Z,89.43
2019-03-11T12:47:19.565Z,88.77
2019-03-11T12:48:19.591Z,89.15
2019-03-11T12:49:19.622Z,89.34
2019-03-11T12:50:19.647Z,88.96
2019-03-11T12:51:19.671Z,88.77
2019-03-11T12:52:19.698Z,89.15
2019-03-11T12:53:19.727Z,88.77
2019-03-11T12:54:19.755Z,89.72
2019-03-11T12:55:21.323Z,89.06
2019-03-11T12:56:19.811Z,88.96
2019-03-11T12:57:19.831Z,89.81
2019-03-11T12:58:19.860Z,90.00
2019-03-11T12:59:19.888Z,89.06
2019-03-11T13:00:19.915Z,88.58
2019-03-11T13:01:19.942Z,88.48